Time;durP1;ratioP1;P1;durP2;ratioP2;P2;SDS_P1;SDS_P2;PMS_P1;PMS_P2;Temp;Humidity;BMP_temperature;BMP_pressure;BME280_temperature;BME280_humidity;BME280_pressure;Samples;Min_cycle;Max_cycle;Signal;HPM_P1;HPM_P2
2024/03/10 00:03:59;;;;;;;5.82;4.80;;;;;;;11.93;100.00;101497.31;10496513;28;20032;-80
2024/03/10 00:09:23;;;;;;;5.22;4.68;;;;;;;11.82;100.00;101504.09;10495494;28;20146;-81
2024/03/10 00:14:46;;;;;;;8.18;5.50;;;;;;;11.65;100.00;101505.44;10495112;28;20064;-82
2024/03/10 00:20:15;;;;;;;7.18;4.80;;;;;;;11.67;100.00;101509.03;10492570;28;20091;-81
2024/03/10 00:25:38;;;;;;;5.72;4.10;;;;;;;11.68;100.00;101502.88;10522668;28;20151;-81
2024/03/10 00:31:01;;;;;;;5.38;4.18;;;;;;;11.76;100.00;101497.78;10498654;28;20055;-81
2024/03/10 00:36:26;;;;;;;4.75;4.28;;;;;;;11.69;100.00;101491.41;10481099;28;20198;-81
2024/03/10 00:41:48;;;;;;;4.68;4.10;;;;;;;11.92;100.00;101484.94;10481428;28;20071;-81
2024/03/10 00:47:11;;;;;;;6.93;5.05;;;;;;;12.00;100.00;101485.09;10507230;28;20055;-81
2024/03/10 00:52:35;;;;;;;5.35;4.82;;;;;;;11.95;100.00;101477.06;10480632;28;20648;-81
2024/03/10 00:57:57;;;;;;;5.57;4.05;;;;;;;12.05;100.00;101477.25;10480227;28;20110;-81
2024/03/10 01:03:20;;;;;;;6.80;4.30;;;;;;;12.06;100.00;101481.69;10480025;28;20052;-81
2024/03/10 01:08:44;;;;;;;5.05;4.10;;;;;;;12.06;100.00;101474.66;10505432;28;20071;-81
2024/03/10 01:14:07;;;;;;;6.20;4.72;;;;;;;11.90;100.00;101486.66;10521189;28;20098;-81
2024/03/10 01:19:30;;;;;;;6.07;4.32;;;;;;;11.71;100.00;101481.78;10478626;28;20044;-82
2024/03/10 01:24:54;;;;;;;5.93;4.40;;;;;;;11.77;100.00;101495.16;10506164;28;20063;-81
2024/03/10 01:30:18;;;;;;;4.68;4.20;;;;;;;11.85;100.00;101501.53;10504236;28;20067;-81
2024/03/10 01:35:42;;;;;;;5.55;4.18;;;;;;;11.85;100.00;101500.63;10478529;28;20044;-81
2024/03/10 01:41:06;;;;;;;4.82;4.18;;;;;;;11.89;100.00;101487.50;10479012;28;20043;-81
2024/03/10 01:46:29;;;;;;;4.72;3.97;;;;;;;11.89;100.00;101481.31;10490774;28;20053;-81
2024/03/10 01:51:52;;;;;;;7.10;4.70;;;;;;;11.86;100.00;101497.13;10492461;28;20052;-81
2024/03/10 01:57:17;;;;;;;5.60;4.68;;;;;;;11.91;100.00;101492.84;10463248;28;20384;-81
2024/03/10 02:02:40;;;;;;;5.45;4.65;;;;;;;11.94;100.00;101500.84;10478029;28;20051;-81
2024/03/10 02:08:03;;;;;;;6.70;4.50;;;;;;;11.64;100.00;101497.47;10491133;28;20045;-81
2024/03/10 02:13:27;;;;;;;6.32;5.10;;;;;;;11.46;100.00;101495.28;10507858;28;20044;-81
2024/03/10 02:18:51;;;;;;;5.25;4.50;;;;;;;11.66;100.00;101503.69;10504905;28;20447;-81
2024/03/10 02:24:19;;;;;;;5.75;4.68;;;;;;;11.54;100.00;101501.66;10491596;28;20109;-80
2024/03/10 02:30:00;;;;;;;7.53;4.43;;;;;;;11.60;100.00;101496.53;10498902;28;20139;-81
2024/03/10 02:52:24;;;;;;;6.18;4.57;;;;;;;11.56;100.00;101492.00;10486640;28;20062;-81
2024/03/10 02:57:47;;;;;;;6.22;4.50;;;;;;;11.48;100.00;101494.50;10484876;28;20488;-81
2024/03/10 03:03:11;;;;;;;8.98;4.53;;;;;;;11.56;100.00;101487.59;10510377;28;20097;-81
2024/03/10 03:08:34;;;;;;;9.65;4.70;;;;;;;11.52;100.00;101492.78;10484160;28;20041;-81
2024/03/10 03:13:56;;;;;;;7.88;5.15;;;;;;;11.45;100.00;101498.78;10497875;28;20051;-81
2024/03/10 03:19:20;;;;;;;6.82;4.28;;;;;;;11.63;100.00;101495.69;10512071;28;20055;-81
2024/03/10 03:24:43;;;;;;;11.18;7.70;;;;;;;11.63;100.00;101499.22;10509838;28;20072;-80
2024/03/10 03:30:07;;;;;;;7.43;6.50;;;;;;;11.47;100.00;101499.72;10497465;28;20492;-81
2024/03/10 03:35:31;;;;;;;7.05;5.03;;;;;;;11.22;100.00;101507.94;10510572;28;20049;-82
2024/03/10 03:40:54;;;;;;;7.47;5.18;;;;;;;11.26;100.00;101521.25;10511811;28;20159;-81
2024/03/10 03:46:17;;;;;;;7.03;4.90;;;;;;;11.46;100.00;101513.81;10511922;28;20048;-81
2024/03/10 03:51:46;;;;;;;5.47;4.40;;;;;;;11.54;100.00;101525.47;10495066;28;20056;-81
2024/03/10 03:57:09;;;;;;;5.25;4.70;;;;;;;11.52;100.00;101522.78;10494863;28;20047;-81
2024/03/10 04:02:31;;;;;;;4.57;4.18;;;;;;;11.59;100.00;101531.75;10507535;28;20048;-81
2024/03/10 04:07:56;;;;;;;4.85;4.40;;;;;;;11.72;100.00;101527.63;10523318;28;20052;-81
2024/03/10 04:13:19;;;;;;;6.82;5.40;;;;;;;11.54;100.00;101544.88;10482385;28;20052;-81
2024/03/10 04:18:41;;;;;;;8.20;5.13;;;;;;;11.38;100.00;101539.16;10472183;28;20373;-82
2024/03/10 04:24:07;;;;;;;6.20;5.57;;;;;;;11.49;100.00;101540.31;10506445;28;20048;-81
2024/03/10 04:29:30;;;;;;;5.95;4.85;;;;;;;11.81;100.00;101543.78;10497171;28;20044;-81
2024/03/10 04:34:57;;;;;;;6.15;4.45;;;;;;;12.19;100.00;101542.88;10508461;28;20048;-82
2024/03/10 04:40:23;;;;;;;6.75;4.53;;;;;;;12.27;100.00;101550.97;10496436;28;20060;-81
2024/03/10 04:45:51;;;;;;;4.53;4.13;;;;;;;12.47;100.00;101551.38;10483630;28;20049;-81
2024/03/10 04:51:24;;;;;;;4.97;4.53;;;;;;;12.47;100.00;101567.28;10449474;28;20049;-81
2024/03/10 04:56:48;;;;;;;6.82;5.20;;;;;;;12.43;100.00;101562.75;10480892;28;20048;-81
2024/03/10 05:02:12;;;;;;;6.43;4.35;;;;;;;12.59;100.00;101572.81;10477487;28;20447;-81
2024/03/10 05:07:39;;;;;;;5.97;4.97;;;;;;;12.76;100.00;101576.69;10507777;28;20052;-81
2024/03/10 05:13:04;;;;;;;14.02;8.65;;;;;;;13.13;100.00;101580.94;10492560;28;20050;-81
2024/03/10 05:18:27;;;;;;;16.75;8.95;;;;;;;13.28;100.00;101586.53;10492967;28;20068;-81
2024/03/10 05:23:50;;;;;;;6.97;4.85;;;;;;;13.38;100.00;101577.91;10494249;28;20114;-81
2024/03/10 05:29:14;;;;;;;5.07;4.43;;;;;;;13.55;100.00;101575.53;10478350;28;20059;-81
2024/03/10 05:34:36;;;;;;;6.25;5.45;;;;;;;13.90;100.00;101574.31;10514941;28;20496;-81
2024/03/10 05:39:59;;;;;;;7.43;4.88;;;;;;;14.51;100.00;101574.28;10478269;28;20068;-81
2024/03/10 05:45:23;;;;;;;9.15;5.40;;;;;;;14.72;100.00;101571.91;10521795;28;21506;-81
2024/03/10 05:50:45;;;;;;;5.75;4.93;;;;;;;14.71;100.00;101575.41;10478177;28;20059;-81
2024/03/10 05:56:08;;;;;;;6.28;5.03;;;;;;;14.65;100.00;101578.91;10492694;28;20094;-81
2024/03/10 06:01:32;;;;;;;4.65;3.95;;;;;;;14.96;100.00;101582.81;10501798;28;20056;-81
2024/03/10 06:06:54;;;;;;;6.20;5.15;;;;;;;15.91;100.00;101582.81;10485282;28;20442;-80
2024/03/10 06:12:18;;;;;;;9.30;8.15;;;;;;;16.12;100.00;101576.72;10517730;28;20055;-81
2024/03/10 06:17:50;;;;;;;6.03;4.63;;;;;;;16.84;100.00;101585.97;10515771;28;20041;-80
2024/03/10 06:28:57;;;;;;;5.78;5.03;;;;;;;19.02;100.00;101581.31;10476966;28;20049;-80
2024/03/10 06:34:21;;;;;;;5.95;5.30;;;;;;;20.28;100.00;101581.09;10518767;28;20052;-81
2024/03/10 06:39:44;;;;;;;3.85;3.33;;;;;;;21.56;89.83;101592.84;10506053;28;20254;-82
2024/03/10 06:45:08;;;;;;;5.43;3.42;;;;;;;25.40;55.13;101586.22;10503759;28;20075;-82
2024/03/10 06:50:33;;;;;;;2.85;2.55;;;;;;;26.46;48.19;101584.38;10505821;28;20040;-82
2024/03/10 06:55:58;;;;;;;3.63;2.67;;;;;;;24.85;53.29;101586.19;10477586;28;20098;-82
2024/03/10 07:01:21;;;;;;;3.65;2.67;;;;;;;26.59;44.77;101603.78;10490704;28;20062;-82
2024/03/10 07:06:49;;;;;;;4.85;2.85;;;;;;;26.55;42.32;101607.53;10490569;28;20095;-82
2024/03/10 07:12:13;;;;;;;5.10;2.80;;;;;;;26.46;41.97;101616.88;10476742;28;20048;-82
2024/03/10 07:17:38;;;;;;;6.75;5.55;;;;;;;25.69;41.77;101619.59;10491269;28;20056;-82
2024/03/10 07:23:02;;;;;;;2.85;2.38;;;;;;;26.34;39.71;101620.03;10490321;28;20040;-82
2024/03/10 07:28:25;;;;;;;2.40;2.20;;;;;;;25.62;40.15;101635.13;10504150;28;20048;-82
2024/03/10 07:33:50;;;;;;;3.75;2.40;;;;;;;26.25;37.81;101633.03;10521936;28;20052;-83
2024/03/10 07:39:15;;;;;;;4.47;2.33;;;;;;;29.05;32.92;101628.69;10498031;28;20071;-83
2024/03/10 07:44:39;;;;;;;4.43;3.30;;;;;;;29.33;32.25;101630.97;10497536;28;20106;-84
2024/03/10 07:50:01;;;;;;;6.43;5.05;;;;;;;27.69;34.22;101647.38;10497563;28;20048;-83
2024/03/10 07:55:30;;;;;;;3.45;2.58;;;;;;;28.91;32.21;101655.66;10497545;28;20082;-85
2024/03/10 08:00:54;;;;;;;4.18;3.40;;;;;;;30.79;30.02;101667.06;10510299;28;20052;-83
2024/03/10 08:06:21;;;;;;;4.03;2.33;;;;;;;27.42;33.49;101650.31;10495949;28;20122;-85
2024/03/10 08:11:46;;;;;;;2.92;2.63;;;;;;;25.85;35.15;101658.75;10511647;28;20059;-84
2024/03/10 08:17:09;;;;;;;4.82;4.32;;;;;;;25.83;36.26;101670.53;10496535;28;20079;-85
2024/03/10 08:22:32;;;;;;;3.75;2.50;;;;;;;30.44;29.64;101663.50;10495888;28;20048;-82
2024/03/10 08:27:58;;;;;;;3.55;3.00;;;;;;;29.26;30.56;101664.88;10473593;28;20063;-81
2024/03/10 08:33:21;;;;;;;4.18;3.78;;;;;;;30.09;28.95;101651.69;10509994;28;20044;-82
2024/03/10 08:38:44;;;;;;;3.13;2.83;;;;;;;31.03;28.35;101653.97;10522255;28;20479;-81
2024/03/10 08:44:11;;;;;;;4.88;3.10;;;;;;;32.49;26.33;101637.22;10495162;28;20044;-81
2024/03/10 08:49:33;;;;;;;3.28;2.97;;;;;;;30.89;27.65;101631.03;10522835;28;20060;-81
2024/03/10 08:54:56;;;;;;;4.25;2.40;;;;;;;30.56;28.78;101629.28;10467812;28;20180;-81
2024/03/10 09:00:21;;;;;;;2.45;2.25;;;;;;;31.25;26.00;101630.84;10502877;28;20156;-81
2024/03/10 09:05:43;;;;;;;3.72;2.55;;;;;;;31.71;25.44;101635.53;10522814;28;20152;-82
2024/03/10 09:11:06;;;;;;;3.00;2.20;;;;;;;31.73;25.54;101644.53;10479819;28;20061;-82
2024/03/10 09:16:30;;;;;;;3.28;2.03;;;;;;;32.28;24.64;101642.16;10493081;28;20057;-82
2024/03/10 09:21:53;;;;;;;2.85;2.63;;;;;;;32.86;23.79;101642.16;10521448;28;20041;-80
2024/03/10 09:27:16;;;;;;;2.83;2.50;;;;;;;31.56;24.71;101646.38;10482508;28;20049;-81
2024/03/10 09:32:42;;;;;;;4.85;2.67;;;;;;;31.36;25.32;101643.91;10464237;28;20056;-79
2024/03/10 09:38:05;;;;;;;3.17;2.63;;;;;;;32.23;24.37;101655.22;10443783;28;20139;-82
2024/03/10 09:43:29;;;;;;;3.47;2.45;;;;;;;33.02;22.82;101645.66;10521440;28;20048;-83
2024/03/10 09:48:53;;;;;;;5.50;2.75;;;;;;;33.89;22.64;101649.06;10465542;28;20049;-83
2024/03/10 09:54:17;;;;;;;2.50;2.28;;;;;;;33.15;22.71;101643.00;10482440;28;20056;-82
2024/03/10 09:59:43;;;;;;;4.40;2.50;;;;;;;32.46;23.81;101632.81;10516396;28;20086;-83
2024/03/10 10:05:20;;;;;;;3.72;2.30;;;;;;;32.69;23.41;101637.75;10478541;28;20421;-83
2024/03/10 10:10:49;;;;;;;2.87;1.97;;;;;;;33.10;23.33;101634.22;10506106;28;20567;-83
2024/03/10 10:16:14;;;;;;;2.55;2.03;;;;;;;32.64;24.11;101625.28;10524168;28;20056;-84
2024/03/10 10:21:39;;;;;;;6.25;2.60;;;;;;;33.29;23.59;101634.81;10518406;28;20133;-83
2024/03/10 10:27:02;;;;;;;5.82;2.90;;;;;;;33.19;24.16;101626.34;10492073;28;20455;-83
2024/03/10 10:32:26;;;;;;;2.78;2.17;;;;;;;32.95;24.19;101616.06;10491428;28;20101;-83
2024/03/10 10:37:55;;;;;;;5.47;2.70;;;;;;;31.51;25.68;101620.28;10504448;28;20056;-82
2024/03/10 10:43:19;;;;;;;2.88;2.22;;;;;;;31.11;25.53;101610.78;10491657;28;20045;-86
2024/03/10 10:48:45;;;;;;;8.93;5.57;;;;;;;30.77;26.07;101607.19;10491427;28;20407;-85
2024/03/10 10:54:12;;;;;;;5.50;2.60;;;;;;;30.33;27.31;101611.38;10519706;28;20131;-84
2024/03/10 10:59:36;;;;;;;4.85;3.42;;;;;;;29.15;28.37;101610.97;10477603;28;20050;-83
2024/03/10 11:05:01;;;;;;;6.45;3.53;;;;;;;28.14;30.21;101606.56;10513244;28;20055;-81
2024/03/10 11:10:47;;;;;;;2.88;2.58;;;;;;;28.30;30.02;101595.88;10485267;28;20080;-85
2024/03/10 11:16:11;;;;;;;4.25;2.80;;;;;;;28.90;28.66;101597.66;10488471;28;20060;-85
2024/03/10 11:21:34;;;;;;;3.63;2.40;;;;;;;28.52;28.65;101585.81;10498822;28;20048;-84
2024/03/10 11:27:18;;;;;;;2.80;2.50;;;;;;;27.57;29.33;101577.31;10513015;28;20055;-84
2024/03/10 11:32:43;;;;;;;6.40;2.67;;;;;;;26.11;31.54;101577.53;10526727;28;20045;-85
2024/03/10 11:38:09;;;;;;;5.63;2.35;;;;;;;25.54;33.22;101580.38;10498784;28;20052;-86
2024/03/10 11:43:35;;;;;;;3.47;1.90;;;;;;;25.21;33.48;101576.06;10498231;28;20058;-84
2024/03/10 11:48:59;;;;;;;2.90;2.40;;;;;;;24.76;35.58;101575.63;10484857;28;20068;-85
2024/03/10 11:54:22;;;;;;;3.65;3.35;;;;;;;24.23;37.03;101578.06;10497728;28;20550;-85
2024/03/10 11:59:48;;;;;;;5.05;2.50;;;;;;;23.68;37.80;101574.13;10493371;28;20103;-84
2024/03/10 12:05:15;;;;;;;3.85;2.92;;;;;;;23.26;39.03;101586.81;10496438;28;20527;-85
2024/03/10 12:10:38;;;;;;;3.72;2.40;;;;;;;22.93;39.86;101588.47;10455106;28;20049;-83
2024/03/10 12:16:06;;;;;;;5.57;3.10;;;;;;;22.57;40.07;101583.84;10478116;28;20388;-85
2024/03/10 12:21:29;;;;;;;;;;;;;;;22.23;40.87;101571.06;10496693;28;20139;-85
2024/03/10 12:26:54;;;;;;;3.30;2.83;;;;;;;21.71;41.37;101579.16;10481084;28;19999;-84
2024/03/10 12:32:28;;;;;;;3.20;2.60;;;;;;;21.52;41.30;101574.13;10495964;28;20136;-82
2024/03/10 12:37:51;;;;;;;3.35;2.70;;;;;;;21.26;42.05;101580.81;10524391;28;20052;-81
2024/03/10 12:43:13;;;;;;;3.47;2.10;;;;;;;21.08;42.46;101579.22;10515827;28;20048;-80
2024/03/10 12:48:38;;;;;;;4.13;2.35;;;;;;;20.95;43.15;101568.66;10494473;28;20055;-85
2024/03/10 12:54:00;;;;;;;2.60;2.40;;;;;;;21.13;43.43;101578.28;10495040;28;20062;-84
2024/03/10 12:59:24;;;;;;;4.88;2.78;;;;;;;20.86;43.86;101575.09;10494006;28;20090;-85
2024/03/10 13:04:49;;;;;;;2.50;2.30;;;;;;;20.69;45.40;101577.09;10522918;28;20056;-81
2024/03/10 13:10:14;;;;;;;2.97;2.67;;;;;;;20.54;45.23;101575.50;10522242;28;20080;-81
2024/03/10 13:15:37;;;;;;;5.15;2.60;;;;;;;20.44;46.33;101580.97;10489634;28;20072;-82
2024/03/10 13:21:03;;;;;;;4.00;2.40;;;;;;;20.49;46.83;101582.69;10493666;28;20051;-82
2024/03/10 13:26:29;;;;;;;2.50;2.30;;;;;;;20.50;46.71;101580.91;10478750;28;20052;-85
2024/03/10 13:31:55;;;;;;;5.70;2.22;;;;;;;20.42;45.70;101581.00;10464480;28;20132;-84
2024/03/10 13:37:31;;;;;;;3.58;2.30;;;;;;;20.21;46.59;101590.16;10438392;28;20049;-84
2024/03/10 13:42:54;;;;;;;3.38;2.78;;;;;;;20.13;47.75;101575.03;10469535;28;20462;-88
2024/03/10 13:48:17;;;;;;;4.18;2.53;;;;;;;20.05;47.81;101583.16;10476341;28;20044;-81
2024/03/10 13:53:41;;;;;;;2.63;2.42;;;;;;;19.95;49.45;101585.97;10492149;28;20044;-82
2024/03/10 13:59:07;;;;;;;4.05;2.65;;;;;;;19.96;49.27;101588.59;10478360;28;20147;-80
2024/03/10 14:04:31;;;;;;;2.85;2.53;;;;;;;19.86;48.50;101595.88;10472083;28;20063;-81
2024/03/10 14:09:57;;;;;;;3.25;2.45;;;;;;;19.80;48.83;101595.03;10517505;28;20492;-83
2024/03/10 14:15:20;;;;;;;5.75;2.88;;;;;;;19.58;49.28;101596.09;10491405;28;20044;-83
2024/03/10 14:20:45;;;;;;;3.03;2.72;;;;;;;19.52;49.58;101594.38;10476602;28;20523;-84
2024/03/10 14:26:09;;;;;;;4.40;2.97;;;;;;;19.29;51.11;101593.63;10490327;28;20048;-81
2024/03/10 14:31:32;;;;;;;3.63;2.70;;;;;;;19.27;51.68;101588.28;10490619;28;20170;-84
2024/03/10 14:36:58;;;;;;;3.63;2.60;;;;;;;19.08;52.73;101594.66;10477602;28;20544;-82
2024/03/10 14:42:22;;;;;;;3.60;2.90;;;;;;;18.86;55.37;101598.31;10494667;28;20055;-82
2024/03/10 14:47:47;;;;;;;5.75;3.97;;;;;;;18.77;57.29;101599.28;10517961;28;20048;-82
2024/03/10 14:53:09;;;;;;;4.82;3.20;;;;;;;18.54;58.69;101601.09;10489036;28;20141;-81
2024/03/10 14:58:33;;;;;;;4.72;3.15;;;;;;;18.33;62.16;101600.28;10483661;28;20511;-79
2024/03/10 15:03:56;;;;;;;4.22;3.65;;;;;;;18.22;66.98;101583.38;10527443;28;20040;-80
2024/03/10 15:09:18;;;;;;;4.57;4.10;;;;;;;17.97;68.98;101587.00;10497857;28;20508;-82
2024/03/10 15:14:42;;;;;;;6.68;4.65;;;;;;;17.69;72.57;101593.25;10498247;28;20044;-82
2024/03/10 15:20:09;;;;;;;4.63;3.42;;;;;;;17.56;74.29;101594.09;10483728;28;20045;-80
2024/03/10 15:25:34;;;;;;;6.85;4.95;;;;;;;17.50;76.08;101585.22;10497140;28;20118;-80
2024/03/10 15:30:58;;;;;;;4.07;3.70;;;;;;;17.28;79.32;101588.75;10497024;28;20048;-81
2024/03/10 15:36:23;;;;;;;6.38;4.50;;;;;;;17.13;81.51;101596.75;10511515;28;20060;-82
2024/03/10 15:41:45;;;;;;;5.35;4.43;;;;;;;17.02;83.91;101593.13;10482828;28;20923;-82
2024/03/10 15:47:09;;;;;;;8.90;5.63;;;;;;;16.86;87.30;101600.22;10483559;28;20060;-81
2024/03/10 15:52:33;;;;;;;6.72;6.07;;;;;;;16.58;91.40;101604.50;10481503;28;20052;-82
2024/03/10 15:57:56;;;;;;;6.68;5.75;;;;;;;16.43;95.44;101604.44;10482288;28;20044;-86
2024/03/10 16:03:26;;;;;;;9.55;7.13;;;;;;;16.16;98.58;101615.81;10488983;28;20064;-83
2024/03/10 16:08:48;;;;;;;6.65;5.95;;;;;;;15.91;100.00;101612.09;10472606;28;20118;-85
2024/03/10 16:14:16;;;;;;;8.05;6.47;;;;;;;15.66;100.00;101620.78;10474490;28;20143;-85
2024/03/10 16:19:40;;;;;;;6.03;5.30;;;;;;;15.46;100.00;101622.34;10480497;28;20099;-85
2024/03/10 16:25:07;;;;;;;17.65;15.85;;;;;;;15.21;100.00;101638.94;10479599;28;20047;-84
2024/03/10 16:30:29;;;;;;;35.95;32.80;;;;;;;15.21;100.00;101641.59;10467419;28;20080;-86
2024/03/10 16:35:54;;;;;;;33.15;30.13;;;;;;;15.19;100.00;101649.53;10471709;28;20052;-82
2024/03/10 16:41:17;;;;;;;15.50;14.00;;;;;;;14.82;100.00;101648.22;10493970;28;20101;-84
2024/03/10 16:46:39;;;;;;;9.25;8.35;;;;;;;14.66;100.00;101638.25;10479830;28;20059;-85
2024/03/10 16:52:05;;;;;;;12.98;11.35;;;;;;;14.62;100.00;101652.41;10505741;28;20572;-85
2024/03/10 16:57:28;;;;;;;45.72;40.90;;;;;;;14.24;100.00;101659.78;10475138;28;20126;-85
2024/03/10 17:02:51;;;;;;;57.75;45.60;;;;;;;14.01;100.00;101647.91;10467628;28;20056;-80
2024/03/10 17:08:15;;;;;;;31.55;28.33;;;;;;;13.94;100.00;101660.19;10490416;28;20056;-82
2024/03/10 17:13:38;;;;;;;18.77;16.90;;;;;;;13.77;100.00;101656.38;10493050;28;20523;-82
2024/03/10 17:19:00;;;;;;;12.50;10.63;;;;;;;13.67;100.00;101662.38;10489585;28;20102;-81
2024/03/10 17:24:24;;;;;;;195.45;164.60;;;;;;;13.55;100.00;101663.06;10487867;28;20067;-81
2024/03/10 17:29:47;;;;;;;51.10;46.60;;;;;;;13.34;100.00;101660.00;10492974;28;20139;-83
2024/03/10 17:35:10;;;;;;;29.85;27.10;;;;;;;13.11;100.00;101667.50;10477628;28;20352;-79
2024/03/10 17:40:35;;;;;;;23.77;19.38;;;;;;;13.15;100.00;101666.72;10490218;28;20053;-87
2024/03/10 17:45:58;;;;;;;23.88;21.65;;;;;;;12.75;100.00;101681.78;10478097;28;20135;-82
2024/03/10 17:51:20;;;;;;;12.30;11.10;;;;;;;12.78;100.00;101684.50;10475994;28;20044;-78
2024/03/10 17:56:44;;;;;;;12.13;9.23;;;;;;;12.73;100.00;101686.13;10475927;28;20090;-81
2024/03/10 18:02:08;;;;;;;17.63;15.82;;;;;;;12.47;100.00;101697.91;10485746;28;20130;-82
2024/03/10 18:07:31;;;;;;;9.32;8.32;;;;;;;12.76;100.00;101688.88;10486938;28;20052;-80
2024/03/10 18:12:58;;;;;;;29.15;26.52;;;;;;;12.44;100.00;101692.56;10486755;28;20059;-80
2024/03/10 18:18:25;;;;;;;24.63;22.50;;;;;;;12.41;100.00;101699.53;10468036;28;20049;-82
2024/03/10 18:23:48;;;;;;;43.13;39.40;;;;;;;12.35;100.00;101703.81;10477981;28;20051;-83
2024/03/10 18:29:13;;;;;;;54.63;49.72;;;;;;;12.27;100.00;101704.53;10493866;28;20110;-82
2024/03/10 18:34:35;;;;;;;20.42;18.52;;;;;;;12.05;100.00;101702.19;10495694;28;20044;-82
2024/03/10 18:39:58;;;;;;;11.98;9.35;;;;;;;12.13;100.00;101705.94;10479778;28;20523;-82
2024/03/10 18:45:22;;;;;;;17.92;16.35;;;;;;;12.26;100.00;101708.91;10474397;28;20087;-81
2024/03/10 18:50:44;;;;;;;25.38;22.90;;;;;;;12.04;100.00;101703.06;10456639;28;20059;-83
2024/03/10 18:56:08;;;;;;;32.03;28.88;;;;;;;12.03;100.00;101709.19;10464868;28;20052;-80
2024/03/10 19:01:32;;;;;;;15.27;13.63;;;;;;;11.80;100.00;101722.75;10479712;28;20070;-83
2024/03/10 19:06:54;;;;;;;9.88;8.85;;;;;;;11.89;100.00;101722.97;10480029;28;20045;-82
2024/03/10 19:12:20;;;;;;;9.70;7.90;;;;;;;12.05;100.00;101721.63;10478706;28;20166;-79
2024/03/10 19:17:49;;;;;;;12.85;10.82;;;;;;;12.09;100.00;101725.22;10500060;28;20045;-79
2024/03/10 19:23:11;;;;;;;19.05;17.02;;;;;;;11.84;100.00;101721.97;10476346;28;20139;-80
2024/03/10 19:28:34;;;;;;;19.77;17.48;;;;;;;11.72;100.00;101723.38;10488310;28;20098;-80
2024/03/10 19:33:59;;;;;;;38.13;34.55;;;;;;;11.87;100.00;101722.06;10476234;28;20052;-81
2024/03/10 19:39:23;;;;;;;22.17;20.00;;;;;;;11.97;100.00;101731.13;10482442;28;20041;-79
2024/03/10 19:44:46;;;;;;;14.43;13.02;;;;;;;11.91;100.00;101734.50;10481843;28;20506;-80
2024/03/10 19:50:12;;;;;;;13.63;12.23;;;;;;;11.93;100.00;101739.84;10493432;28;20084;-79
2024/03/10 19:55:34;;;;;;;22.67;20.48;;;;;;;11.73;100.00;101739.28;10482033;28;20668;-80
2024/03/10 20:00:58;;;;;;;18.40;16.67;;;;;;;11.90;100.00;101735.34;10491751;28;20044;-79
2024/03/10 20:06:24;;;;;;;19.15;17.33;;;;;;;11.86;100.00;101738.78;10477355;28;20047;-79
2024/03/10 20:11:47;;;;;;;18.88;17.17;;;;;;;11.66;100.00;101733.78;10480863;28;20050;-80
2024/03/10 20:17:16;;;;;;;12.65;11.35;;;;;;;11.38;100.00;101726.84;10482635;28;20067;-80
2024/03/10 20:22:40;;;;;;;13.27;11.88;;;;;;;11.51;100.00;101721.03;10495489;28;20413;-80
2024/03/10 20:28:06;;;;;;;27.02;20.58;;;;;;;11.55;100.00;101715.00;10482389;28;20098;-80
2024/03/10 20:33:33;;;;;;;16.00;14.40;;;;;;;11.79;100.00;101710.38;10469607;28;20041;-80
2024/03/10 20:38:57;;;;;;;18.42;16.65;;;;;;;11.77;100.00;101697.97;10468469;28;20041;-79
2024/03/10 20:44:19;;;;;;;22.75;20.45;;;;;;;11.54;100.00;101697.34;10481502;28;20045;-79
2024/03/10 20:49:41;;;;;;;9.20;6.82;;;;;;;11.68;100.00;101698.59;10480325;28;20510;-79
2024/03/10 20:55:06;;;;;;;8.55;7.75;;;;;;;11.64;100.00;101704.66;10522658;28;20079;-80
2024/03/10 21:00:31;;;;;;;15.10;13.50;;;;;;;11.50;100.00;101701.63;10493691;28;20046;-80
2024/03/10 21:05:54;;;;;;;9.15;8.27;;;;;;;11.34;100.00;101699.44;10493455;28;20071;-80
2024/03/10 21:11:18;;;;;;;10.75;7.47;;;;;;;11.25;100.00;101699.19;10522050;28;20049;-79
2024/03/10 21:16:42;;;;;;;7.95;6.53;;;;;;;11.33;100.00;101712.63;10503308;28;20508;-79
2024/03/10 21:22:06;;;;;;;21.50;18.52;;;;;;;11.27;100.00;101708.06;10476849;28;20048;-80
2024/03/10 21:27:31;;;;;;;29.38;20.30;;;;;;;11.26;100.00;101710.66;10493623;28;20052;-80
2024/03/10 21:32:54;;;;;;;10.73;8.07;;;;;;;11.20;100.00;101706.09;10477677;28;20128;-80
2024/03/10 21:38:18;;;;;;;7.65;6.95;;;;;;;11.17;100.00;101701.59;10490872;28;20072;-80
2024/03/10 21:43:43;;;;;;;16.58;11.15;;;;;;;11.21;100.00;101704.34;10452621;28;20053;-80
2024/03/10 21:49:06;;;;;;;21.10;14.23;;;;;;;11.21;100.00;101702.59;10464748;28;20041;-79
2024/03/10 21:54:28;;;;;;;22.88;15.57;;;;;;;11.21;100.00;101709.63;10491566;28;20072;-81
2024/03/10 21:59:54;;;;;;;8.35;5.65;;;;;;;11.42;100.00;101719.03;10492392;28;20484;-81
2024/03/10 22:05:17;;;;;;;7.18;5.28;;;;;;;11.73;100.00;101717.22;10477659;28;20535;-80
2024/03/10 22:10:40;;;;;;;4.20;3.55;;;;;;;11.94;100.00;101715.19;10477985;28;20057;-80
2024/03/10 22:16:09;;;;;;;4.40;3.95;;;;;;;11.74;100.00;101722.59;10491691;28;20051;-79
2024/03/10 22:21:32;;;;;;;5.18;3.92;;;;;;;11.54;100.00;101729.97;10436305;28;20095;-80
2024/03/10 22:26:56;;;;;;;4.28;3.38;;;;;;;11.35;100.00;101724.13;10488711;28;20040;-80
2024/03/10 22:32:23;;;;;;;6.32;4.75;;;;;;;11.22;100.00;101729.94;10490697;28;20056;-79
2024/03/10 22:37:47;;;;;;;11.38;7.78;;;;;;;11.40;100.00;101725.16;10519167;28;20063;-80
2024/03/10 22:43:10;;;;;;;6.60;4.90;;;;;;;11.44;100.00;101717.34;10487652;28;20071;-80
2024/03/10 22:48:34;;;;;;;13.90;11.30;;;;;;;11.29;100.00;101726.63;10518548;28;20139;-79
2024/03/10 22:53:58;;;;;;;14.95;9.07;;;;;;;11.02;100.00;101727.63;10491949;28;20058;-80
2024/03/10 22:59:21;;;;;;;3.90;3.58;;;;;;;11.10;100.00;101734.00;10476093;28;20056;-81
2024/03/10 23:04:46;;;;;;;14.32;13.00;;;;;;;11.11;100.00;101735.78;10480898;28;20040;-80
2024/03/10 23:10:10;;;;;;;8.02;7.22;;;;;;;10.82;100.00;101734.03;10498492;28;20056;-80
2024/03/10 23:15:33;;;;;;;12.93;10.45;;;;;;;10.91;100.00;101736.03;10498319;28;20480;-80
2024/03/10 23:20:57;;;;;;;16.92;15.35;;;;;;;11.11;100.00;101738.44;10497038;28;20055;-81
2024/03/10 23:26:21;;;;;;;11.45;8.27;;;;;;;10.71;100.00;101728.41;10482887;28;20504;-81
2024/03/10 23:31:44;;;;;;;10.00;6.95;;;;;;;10.75;100.00;101713.59;10465017;28;20423;-80
2024/03/10 23:37:09;;;;;;;6.47;5.38;;;;;;;10.62;100.00;101716.69;10484009;28;20382;-80
2024/03/10 23:42:32;;;;;;;12.32;8.20;;;;;;;10.56;100.00;101705.94;10488837;28;20377;-80
2024/03/10 23:47:55;;;;;;;12.85;9.93;;;;;;;10.69;100.00;101697.56;10501621;28;20041;-80
2024/03/10 23:53:20;;;;;;;8.48;6.20;;;;;;;10.67;100.00;101696.59;10482552;28;20051;-79
2024/03/10 23:58:42;;;;;;;4.95;3.20;;;;;;;10.42;100.00;101715.19;10508956;28;20668;-80
